Time;durP1;ratioP1;P1;durP2;ratioP2;P2;SDS_P1;SDS_P2;PMS_P1;PMS_P2;Temp;Humidity;BMP_temperature;BMP_pressure;BME280_temperature;BME280_humidity;BME280_pressure;Samples;Min_cycle;Max_cycle;Signal;HPM_P1;HPM_P2
2022/04/08 00:01:54;;;;;;;0.00;0.00;;;12.10;90.20;;;;;;4151071;28;20056;-69
2022/04/08 00:04:18;;;;;;;0.00;0.00;;;12.20;90.00;;;;;;4150985;28;20495;-69
2022/04/08 00:06:45;;;;;;;0.00;0.00;;;12.20;89.60;;;;;;4150481;28;20069;-69
2022/04/08 00:09:08;;;;;;;0.00;0.00;;;12.20;89.70;;;;;;4150907;28;20092;-70
2022/04/08 00:11:30;;;;;;;0.00;0.00;;;12.30;89.40;;;;;;4151052;28;20049;-69
2022/04/08 00:13:57;;;;;;;0.00;0.00;;;12.40;89.20;;;;;;4150920;28;20112;-71
2022/04/08 00:16:20;;;;;;;0.00;0.00;;;12.40;88.50;;;;;;4165126;28;20041;-73
2022/04/08 00:19:00;;;;;;;0.00;0.00;;;12.40;87.70;;;;;;4152552;28;20092;-69
2022/04/08 00:21:36;;;;;;;0.00;0.00;;;12.40;86.80;;;;;;4152615;28;20052;-73
2022/04/08 00:24:08;;;;;;;0.00;0.00;;;12.40;86.80;;;;;;4139591;28;20034;-70
2022/04/08 00:26:35;;;;;;;0.00;0.00;;;12.40;86.50;;;;;;4164976;28;20046;-68
2022/04/08 00:29:03;;;;;;;0.00;0.00;;;12.50;85.50;;;;;;4137483;28;20065;-72
2022/04/08 00:31:29;;;;;;;0.00;0.00;;;12.50;85.20;;;;;;4165135;28;20137;-71
2022/04/08 00:33:53;;;;;;;0.00;0.00;;;12.50;84.80;;;;;;4137275;28;20107;-71
2022/04/08 00:36:21;;;;;;;0.00;0.00;;;12.40;84.30;;;;;;4151548;28;20388;-68
2022/04/08 00:38:48;;;;;;;0.00;0.00;;;12.50;83.70;;;;;;4137099;28;20046;-73
2022/04/08 00:41:25;;;;;;;0.00;0.00;;;12.60;83.60;;;;;;4151984;28;20576;-71
2022/04/08 00:43:47;;;;;;;0.00;0.00;;;12.60;83.30;;;;;;4150429;28;20077;-70
2022/04/08 00:46:09;;;;;;;0.00;0.00;;;12.60;83.20;;;;;;4150550;28;20072;-73
2022/04/08 00:48:36;;;;;;;0.00;0.00;;;12.60;83.00;;;;;;4150404;28;20046;-73
2022/04/08 00:51:11;;;;;;;0.00;0.00;;;12.60;83.00;;;;;;4164052;28;20440;-70
2022/04/08 00:53:38;;;;;;;0.00;0.00;;;12.70;82.90;;;;;;4150372;28;20495;-70
2022/04/08 00:56:07;;;;;;;0.00;0.00;;;12.80;82.70;;;;;;4150759;28;20045;-70
2022/04/08 00:58:45;;;;;;;0.00;0.00;;;12.80;82.40;;;;;;4164343;28;20064;-67
2022/04/08 01:01:08;;;;;;;0.00;0.00;;;12.80;82.00;;;;;;4123660;28;20096;-69
2022/04/08 01:03:38;;;;;;;0.00;0.00;;;12.80;81.70;;;;;;4137822;28;20060;-70
2022/04/08 01:06:04;;;;;;;0.00;0.00;;;12.80;81.60;;;;;;4136855;28;20050;-70
2022/04/08 01:08:36;;;;;;;0.00;0.00;;;12.70;81.60;;;;;;4150249;28;20045;-69
2022/04/08 01:11:06;;;;;;;0.00;0.00;;;12.70;81.20;;;;;;4149638;28;20045;-72
2022/04/08 01:13:29;;;;;;;0.00;0.00;;;12.70;80.70;;;;;;4150069;28;20050;-71
2022/04/08 01:16:08;;;;;;;0.00;0.00;;;12.70;80.40;;;;;;4164481;28;20041;-72
2022/04/08 01:18:37;;;;;;;0.00;0.00;;;12.70;80.10;;;;;;4137830;28;20136;-70
2022/04/08 01:21:09;;;;;;;0.00;0.00;;;12.70;80.20;;;;;;4149800;28;20531;-71
2022/04/08 01:23:46;;;;;;;0.00;0.00;;;12.70;80.70;;;;;;4137933;28;20054;-70
2022/04/08 01:26:16;;;;;;;0.00;0.00;;;12.70;80.70;;;;;;4137634;28;20464;-69
2022/04/08 01:28:42;;;;;;;0.00;0.00;;;12.70;81.30;;;;;;4136678;28;20357;-69
2022/04/08 01:31:06;;;;;;;0.00;0.00;;;12.60;81.40;;;;;;4136008;28;20119;-70
2022/04/08 01:33:30;;;;;;;0.00;0.00;;;12.50;82.80;;;;;;4150045;28;20063;-72
2022/04/08 01:35:52;;;;;;;0.00;0.00;;;12.60;82.60;;;;;;4136489;28;20129;-72
2022/04/08 01:38:15;;;;;;;0.00;0.00;;;12.60;82.60;;;;;;4150195;28;20063;-71
2022/04/08 01:40:36;;;;;;;0.00;0.00;;;12.50;82.90;;;;;;4149936;28;20081;-71
2022/04/08 01:42:58;;;;;;;0.00;0.00;;;12.50;83.10;;;;;;4135986;28;20465;-73
2022/04/08 01:45:25;;;;;;;0.00;0.00;;;12.60;82.90;;;;;;4150278;28;20052;-69
2022/04/08 01:47:49;;;;;;;0.00;0.00;;;12.60;83.10;;;;;;4150377;28;20498;-72
2022/04/08 01:50:18;;;;;;;0.00;0.00;;;12.50;83.80;;;;;;4150059;28;20070;-71
2022/04/08 01:52:45;;;;;;;0.00;0.00;;;12.30;84.90;;;;;;4149508;28;20518;-70
2022/04/08 01:55:08;;;;;;;0.00;0.00;;;12.20;85.80;;;;;;4136217;28;20054;-72
2022/04/08 01:57:33;;;;;;;0.00;0.00;;;12.20;86.60;;;;;;4119797;28;20073;-70
2022/04/08 01:59:57;;;;;;;0.00;0.00;;;12.20;87.00;;;;;;4120478;28;20035;-67
2022/04/08 02:02:22;;;;;;;0.00;0.00;;;12.30;87.20;;;;;;4135135;28;20044;-72
2022/04/08 02:04:49;;;;;;;0.00;0.00;;;12.20;87.50;;;;;;4136996;28;20048;-70
2022/04/08 02:07:11;;;;;;;0.00;0.00;;;12.10;86.90;;;;;;4123643;28;20046;-70
2022/04/08 02:09:33;;;;;;;0.00;0.00;;;12.10;87.10;;;;;;4109538;28;20545;-69
2022/04/08 02:11:58;;;;;;;0.00;0.00;;;12.10;86.80;;;;;;4151154;28;20042;-70
2022/04/08 02:14:22;;;;;;;0.00;0.00;;;12.10;86.50;;;;;;4123422;28;20057;-71
2022/04/08 02:16:44;;;;;;;0.00;0.00;;;12.10;86.30;;;;;;4149906;28;20084;-69
2022/04/08 02:19:11;;;;;;;0.00;0.00;;;12.10;86.70;;;;;;4136575;28;20182;-71
2022/04/08 02:21:34;;;;;;;0.00;0.00;;;12.10;86.40;;;;;;4136301;28;20042;-74
2022/04/08 02:23:56;;;;;;;0.00;0.00;;;12.10;86.20;;;;;;4122960;28;20070;-71
2022/04/08 02:26:19;;;;;;;0.00;0.00;;;12.20;86.40;;;;;;4136203;28;20068;-69
2022/04/08 02:28:41;;;;;;;0.00;0.00;;;12.10;86.50;;;;;;4135997;28;20201;-70
2022/04/08 02:31:04;;;;;;;0.00;0.00;;;12.00;86.80;;;;;;4122627;28;20042;-70
2022/04/08 02:33:30;;;;;;;0.00;0.00;;;12.00;87.20;;;;;;4136388;28;20060;-70
2022/04/08 02:35:54;;;;;;;0.00;0.00;;;12.00;87.40;;;;;;4149926;28;20038;-70
2022/04/08 02:38:16;;;;;;;0.00;0.00;;;12.00;87.40;;;;;;4122700;28;20093;-70
2022/04/08 02:40:38;;;;;;;0.00;0.00;;;12.00;87.30;;;;;;4136073;28;20050;-70
2022/04/08 02:43:01;;;;;;;0.00;0.00;;;12.00;87.30;;;;;;4108757;28;20042;-71
2022/04/08 02:45:25;;;;;;;0.00;0.00;;;12.00;87.30;;;;;;4122575;28;20109;-71
2022/04/08 02:47:47;;;;;;;0.00;0.00;;;12.00;87.10;;;;;;4122564;28;20451;-70
2022/04/08 02:50:10;;;;;;;0.00;0.00;;;12.10;86.90;;;;;;4135851;28;20046;-70
2022/04/08 02:52:39;;;;;;;0.00;0.00;;;12.00;86.70;;;;;;4136311;28;20045;-72
2022/04/08 02:55:01;;;;;;;0.00;0.00;;;12.10;87.00;;;;;;4135673;28;20039;-69
2022/04/08 02:57:26;;;;;;;0.00;0.00;;;12.20;85.00;;;;;;4158131;28;20044;-71
2022/04/08 02:59:50;;;;;;;0.00;0.00;;;12.20;83.60;;;;;;4165727;28;20052;-70
2022/04/08 03:02:12;;;;;;;0.00;0.00;;;12.20;81.60;;;;;;4152155;28;20042;-71
2022/04/08 03:04:34;;;;;;;0.00;0.00;;;12.30;80.30;;;;;;4165591;28;20045;-69
2022/04/08 03:06:58;;;;;;;0.00;0.00;;;12.40;79.70;;;;;;4137806;28;20472;-70
2022/04/08 03:09:21;;;;;;;0.00;0.00;;;12.40;79.60;;;;;;4151784;28;20046;-69
2022/04/08 03:11:43;;;;;;;0.00;0.00;;;12.50;79.20;;;;;;4165579;28;20060;-71
2022/04/08 03:14:06;;;;;;;0.00;0.00;;;12.50;79.10;;;;;;4165144;28;20057;-70
2022/04/08 03:16:30;;;;;;;0.00;0.00;;;12.50;78.80;;;;;;4165488;28;20045;-69
2022/04/08 03:18:58;;;;;;;0.00;0.00;;;12.50;78.90;;;;;;4165196;28;20079;-70
2022/04/08 03:21:20;;;;;;;0.00;0.00;;;12.50;77.60;;;;;;4151729;28;20049;-69
2022/04/08 03:23:45;;;;;;;0.00;0.00;;;12.60;77.30;;;;;;4165611;28;20080;-72
2022/04/08 03:26:10;;;;;;;0.00;0.00;;;12.60;76.60;;;;;;4137950;28;20424;-71
2022/04/08 03:28:34;;;;;;;0.00;0.00;;;12.60;76.40;;;;;;4137861;28;20097;-70
2022/04/08 03:30:56;;;;;;;0.00;0.00;;;12.60;76.70;;;;;;4164669;28;20053;-70
2022/04/08 03:33:23;;;;;;;0.00;0.00;;;12.60;76.40;;;;;;4165100;28;20480;-71
2022/04/08 03:35:48;;;;;;;0.00;0.00;;;12.60;76.30;;;;;;4165156;28;20077;-69
2022/04/08 03:38:10;;;;;;;0.00;0.00;;;12.60;76.50;;;;;;4165331;28;20060;-71
2022/04/08 03:40:34;;;;;;;0.00;0.00;;;12.60;76.80;;;;;;4165249;28;20053;-72
2022/04/08 03:42:56;;;;;;;0.00;0.00;;;12.50;77.30;;;;;;4164722;28;20041;-71
2022/04/08 03:45:18;;;;;;;0.00;0.00;;;12.40;78.70;;;;;;4164846;28;20041;-70
2022/04/08 03:47:40;;;;;;;0.00;0.00;;;12.40;79.00;;;;;;4137899;28;20057;-72
2022/04/08 03:50:08;;;;;;;0.00;0.00;;;12.40;78.30;;;;;;4151105;28;20045;-71
2022/04/08 03:52:32;;;;;;;0.00;0.00;;;12.40;77.60;;;;;;4164983;28;20644;-69
2022/04/08 03:54:57;;;;;;;0.00;0.00;;;12.50;77.30;;;;;;4164492;28;20472;-70
2022/04/08 03:57:19;;;;;;;0.00;0.00;;;12.50;77.10;;;;;;4164541;28;20033;-70
2022/04/08 03:59:43;;;;;;;0.00;0.00;;;12.40;76.50;;;;;;4151339;28;20057;-69
2022/04/08 04:02:07;;;;;;;0.00;0.00;;;12.40;77.00;;;;;;4151290;28;20046;-71
2022/04/08 04:04:32;;;;;;;0.00;0.00;;;12.30;77.40;;;;;;4165117;28;20048;-73
2022/04/08 04:06:54;;;;;;;0.00;0.00;;;12.20;77.80;;;;;;4164684;28;20050;-70
2022/04/08 04:09:16;;;;;;;0.00;0.00;;;12.20;78.20;;;;;;4151236;28;20416;-69
2022/04/08 04:11:38;;;;;;;0.00;0.00;;;12.20;78.50;;;;;;4151373;28;20465;-70
2022/04/08 04:14:00;;;;;;;0.00;0.00;;;12.10;78.40;;;;;;4137931;28;20132;-70
2022/04/08 04:16:22;;;;;;;0.00;0.00;;;12.10;78.60;;;;;;4164885;28;20049;-70
2022/04/08 04:18:44;;;;;;;0.00;0.00;;;12.10;78.20;;;;;;4150849;28;20453;-68
2022/04/08 04:21:08;;;;;;;0.00;0.00;;;12.10;78.30;;;;;;4164915;28;20107;-71
2022/04/08 04:23:33;;;;;;;0.00;0.00;;;12.00;77.80;;;;;;4150837;28;20109;-69
2022/04/08 04:25:57;;;;;;;0.00;0.00;;;12.00;78.10;;;;;;4150609;28;20042;-72
2022/04/08 04:28:19;;;;;;;0.00;0.00;;;12.10;78.20;;;;;;4164642;28;20053;-70
2022/04/08 04:30:41;;;;;;;0.00;0.00;;;12.00;78.20;;;;;;4150399;28;20049;-69
2022/04/08 04:33:07;;;;;;;0.00;0.00;;;12.00;78.10;;;;;;4151188;28;20045;-70
2022/04/08 04:35:32;;;;;;;0.00;0.00;;;12.00;78.30;;;;;;4137373;28;20127;-70
2022/04/08 04:37:58;;;;;;;0.00;0.00;;;12.00;78.50;;;;;;4164705;28;20447;-72
2022/04/08 04:40:21;;;;;;;0.00;0.00;;;12.00;78.70;;;;;;4164575;28;20140;-72
2022/04/08 04:42:47;;;;;;;0.00;0.00;;;12.00;78.70;;;;;;4150346;28;20476;-71
2022/04/08 04:45:14;;;;;;;0.00;0.00;;;11.90;78.90;;;;;;4164484;28;20068;-69
2022/04/08 04:47:36;;;;;;;0.00;0.00;;;11.90;79.30;;;;;;4164546;28;20481;-70
2022/04/08 04:50:00;;;;;;;0.00;0.00;;;11.90;79.60;;;;;;4150690;28;20050;-70
2022/04/08 04:52:22;;;;;;;0.00;0.00;;;11.90;79.90;;;;;;4164296;28;20045;-70
2022/04/08 04:54:44;;;;;;;0.00;0.00;;;11.80;80.30;;;;;;4150080;28;20143;-70
2022/04/08 04:57:07;;;;;;;0.00;0.00;;;11.70;80.70;;;;;;4150392;28;20042;-70
2022/04/08 04:59:29;;;;;;;0.00;0.00;;;11.80;80.80;;;;;;4150825;28;20045;-71
2022/04/08 05:01:51;;;;;;;0.00;0.00;;;11.70;81.00;;;;;;4164277;28;20076;-71
2022/04/08 05:04:14;;;;;;;0.00;0.00;;;11.70;81.20;;;;;;4150850;28;20468;-70
2022/04/08 05:06:36;;;;;;;0.00;0.00;;;11.80;81.30;;;;;;4164090;28;20111;-72
2022/04/08 05:08:58;;;;;;;0.00;0.00;;;11.80;81.50;;;;;;4149845;28;20050;-73
2022/04/08 05:11:20;;;;;;;0.00;0.00;;;11.70;81.60;;;;;;4163989;28;20107;-71
2022/04/08 05:13:42;;;;;;;0.00;0.00;;;11.70;82.00;;;;;;4137086;28;20121;-71
2022/04/08 05:16:07;;;;;;;0.00;0.00;;;11.60;82.10;;;;;;4163972;28;20080;-69
2022/04/08 05:18:29;;;;;;;0.00;0.00;;;11.60;82.10;;;;;;4150249;28;20100;-70
2022/04/08 05:20:52;;;;;;;0.00;0.00;;;11.70;82.30;;;;;;4149778;28;20050;-68
2022/04/08 05:23:14;;;;;;;0.00;0.00;;;11.70;82.70;;;;;;4150522;28;20052;-70
2022/04/08 05:25:41;;;;;;;0.00;0.00;;;11.70;82.70;;;;;;4164191;28;20045;-71
2022/04/08 05:28:03;;;;;;;0.00;0.00;;;11.80;82.70;;;;;;4164058;28;20128;-69
2022/04/08 05:30:25;;;;;;;0.00;0.00;;;11.70;82.90;;;;;;4123098;28;20039;-70
2022/04/08 05:32:48;;;;;;;0.00;0.00;;;11.80;82.80;;;;;;4163328;28;20056;-67
2022/04/08 05:35:14;;;;;;;0.00;0.00;;;11.80;82.80;;;;;;4163812;28;20104;-69
2022/04/08 05:37:43;;;;;;;0.00;0.00;;;11.80;83.00;;;;;;4152818;28;20042;-69
2022/04/08 05:40:30;;;;;;;0.00;0.00;;;11.80;83.40;;;;;;4153550;28;20149;-68
2022/04/08 05:42:52;;;;;;;0.00;0.00;;;11.90;83.20;;;;;;4166787;28;20061;-67
2022/04/08 05:45:22;;;;;;;0.00;0.00;;;11.90;83.30;;;;;;4139911;28;20088;-70
2022/04/08 05:47:54;;;;;;;0.00;0.00;;;11.90;83.80;;;;;;4167026;28;20037;-71
2022/04/08 05:50:19;;;;;;;0.00;0.00;;;12.00;84.20;;;;;;4166933;28;20052;-70
2022/04/08 05:52:44;;;;;;;0.00;0.00;;;12.00;83.90;;;;;;4166241;28;20460;-69
2022/04/08 05:55:08;;;;;;;0.00;0.00;;;12.10;83.30;;;;;;4166952;28;20096;-68
2022/04/08 05:57:42;;;;;;;0.00;0.00;;;12.10;83.00;;;;;;4166625;28;20050;-68
2022/04/08 06:00:05;;;;;;;0.00;0.00;;;12.20;83.10;;;;;;4166464;28;20041;-69
2022/04/08 06:02:32;;;;;;;0.00;0.00;;;12.20;83.50;;;;;;4153456;28;20168;-71
2022/04/08 06:04:54;;;;;;;0.00;0.00;;;12.20;83.80;;;;;;4152668;28;20483;-67
2022/04/08 06:07:25;;;;;;;0.00;0.00;;;12.20;83.70;;;;;;4152955;28;20042;-68
2022/04/08 06:09:49;;;;;;;0.00;0.00;;;12.20;83.70;;;;;;4152939;28;20056;-70
2022/04/08 06:12:11;;;;;;;0.00;0.00;;;12.10;83.90;;;;;;4148996;28;20439;-71
2022/04/08 06:14:38;;;;;;;0.00;0.00;;;12.10;84.10;;;;;;4138708;28;20042;-71
2022/04/08 06:17:02;;;;;;;0.00;0.00;;;12.10;84.10;;;;;;4138557;28;20449;-69
2022/04/08 06:19:26;;;;;;;0.00;0.00;;;12.10;84.30;;;;;;4166257;28;20140;-73
2022/04/08 06:21:49;;;;;;;0.00;0.00;;;12.10;84.20;;;;;;4166542;28;20543;-72
2022/04/08 06:24:13;;;;;;;0.00;0.00;;;12.00;84.70;;;;;;4179255;28;20356;-70
2022/04/08 06:26:38;;;;;;;0.00;0.00;;;11.80;85.20;;;;;;4152524;28;20045;-71
2022/04/08 06:29:00;;;;;;;0.00;0.00;;;11.80;85.40;;;;;;4165756;28;20487;-71
2022/04/08 06:31:29;;;;;;;0.00;0.00;;;11.90;85.50;;;;;;4166248;28;20049;-71
2022/04/08 06:33:53;;;;;;;0.00;0.00;;;12.00;85.50;;;;;;4180044;28;20048;-70
2022/04/08 06:36:20;;;;;;;0.00;0.00;;;12.00;85.70;;;;;;4179888;28;20067;-70
2022/04/08 06:38:42;;;;;;;0.00;0.00;;;12.00;86.10;;;;;;4165658;28;20046;-71
2022/04/08 06:41:06;;;;;;;0.00;0.00;;;12.00;86.20;;;;;;4166100;28;20041;-71
2022/04/08 06:43:31;;;;;;;0.00;0.00;;;12.00;86.20;;;;;;4166805;28;20044;-72
2022/04/08 06:45:55;;;;;;;0.00;0.00;;;12.00;86.20;;;;;;4152727;28;20041;-71
2022/04/08 06:48:17;;;;;;;0.00;0.00;;;12.10;85.90;;;;;;4165166;28;20056;-70
2022/04/08 06:50:42;;;;;;;0.00;0.00;;;12.10;86.10;;;;;;4151590;28;20041;-71
2022/04/08 06:53:04;;;;;;;0.00;0.00;;;12.20;86.20;;;;;;4179805;28;20448;-70
2022/04/08 06:55:30;;;;;;;0.00;0.00;;;12.20;86.20;;;;;;4138705;28;20108;-71
2022/04/08 06:57:52;;;;;;;0.00;0.00;;;12.10;86.70;;;;;;4179293;28;20041;-72
2022/04/08 07:00:17;;;;;;;0.00;0.00;;;12.00;86.90;;;;;;4152104;28;20038;-71
2022/04/08 07:02:42;;;;;;;0.00;0.00;;;12.10;87.10;;;;;;4138360;28;20041;-70
2022/04/08 07:05:05;;;;;;;0.00;0.00;;;12.10;86.60;;;;;;4165105;28;20041;-70
2022/04/08 07:07:34;;;;;;;0.00;0.00;;;12.10;86.00;;;;;;4179603;28;20049;-70
2022/04/08 07:09:57;;;;;;;0.00;0.00;;;12.00;85.80;;;;;;4165764;28;20484;-69
2022/04/08 07:12:21;;;;;;;0.00;0.00;;;12.00;85.90;;;;;;4179594;28;20110;-70
2022/04/08 07:14:43;;;;;;;0.00;0.00;;;11.80;87.00;;;;;;4137542;28;20050;-72
2022/04/08 07:17:05;;;;;;;0.00;0.00;;;11.90;87.20;;;;;;4179394;28;20050;-71
2022/04/08 07:19:29;;;;;;;0.00;0.00;;;12.10;87.20;;;;;;4165219;28;20044;-71
2022/04/08 07:21:55;;;;;;;0.00;0.00;;;12.30;87.00;;;;;;4165346;28;20104;-74
2022/04/08 07:24:20;;;;;;;0.00;0.00;;;12.50;86.60;;;;;;4165054;28;20053;-72
2022/04/08 07:26:42;;;;;;;0.00;0.00;;;12.80;86.20;;;;;;4179056;28;20044;-70
2022/04/08 07:29:04;;;;;;;0.00;0.00;;;12.90;85.90;;;;;;4151605;28;20433;-71
2022/04/08 07:31:31;;;;;;;0.00;0.00;;;13.10;84.60;;;;;;4151577;28;20050;-70
2022/04/08 07:33:58;;;;;;;0.00;0.00;;;13.20;83.90;;;;;;4165208;28;20067;-70
2022/04/08 07:36:20;;;;;;;0.00;0.00;;;13.40;82.90;;;;;;4179162;28;20460;-72
2022/04/08 07:38:42;;;;;;;0.00;0.00;;;13.50;81.80;;;;;;4164658;28;20053;-71
2022/04/08 07:41:06;;;;;;;0.00;0.00;;;13.60;81.40;;;;;;4165090;28;20041;-72
2022/04/08 07:43:32;;;;;;;0.00;0.00;;;13.70;80.30;;;;;;4178744;28;20135;-71
2022/04/08 07:45:56;;;;;;;0.00;0.00;;;13.50;80.10;;;;;;4151133;28;20064;-70
2022/04/08 07:48:21;;;;;;;0.00;0.00;;;13.30;81.50;;;;;;4178663;28;20078;-70
2022/04/08 07:50:48;;;;;;;0.00;0.00;;;13.10;82.60;;;;;;4151384;28;20053;-72
2022/04/08 07:53:11;;;;;;;0.00;0.00;;;12.90;83.50;;;;;;4151372;28;20516;-69
2022/04/08 07:55:35;;;;;;;0.00;0.00;;;12.70;84.20;;;;;;4137953;28;20084;-74
2022/04/08 07:58:00;;;;;;;0.00;0.00;;;12.60;85.30;;;;;;4150916;28;20046;-72
2022/04/08 08:00:25;;;;;;;0.00;0.00;;;12.50;85.60;;;;;;4150234;28;20118;-70
2022/04/08 08:02:50;;;;;;;0.00;0.00;;;12.30;85.50;;;;;;4150803;28;20045;-72
2022/04/08 08:05:13;;;;;;;0.00;0.00;;;12.00;86.10;;;;;;4137103;28;20050;-69
2022/04/08 08:07:55;;;;;;;0.00;0.00;;;11.90;85.80;;;;;;4164706;28;20172;-71
2022/04/08 08:10:24;;;;;;;0.00;0.00;;;11.90;86.50;;;;;;4164738;28;20099;-72
2022/04/08 08:12:47;;;;;;;0.00;0.00;;;12.10;86.10;;;;;;4164256;28;20064;-72
2022/04/08 08:15:10;;;;;;;0.00;0.00;;;12.20;85.50;;;;;;4164503;28;20496;-70
2022/04/08 08:17:32;;;;;;;0.00;0.00;;;12.30;85.30;;;;;;4164416;28;20054;-72
2022/04/08 08:19:54;;;;;;;0.00;0.00;;;12.20;84.20;;;;;;4178360;28;20036;-71
2022/04/08 08:22:22;;;;;;;0.00;0.00;;;12.30;84.70;;;;;;4164372;28;20053;-72
2022/04/08 08:24:44;;;;;;;0.00;0.00;;;12.50;84.20;;;;;;4136668;28;20050;-71
2022/04/08 08:27:09;;;;;;;0.00;0.00;;;12.70;83.10;;;;;;4178596;28;20037;-69
2022/04/08 08:29:39;;;;;;;0.00;0.00;;;12.50;82.90;;;;;;4178221;28;20128;-70
2022/04/08 08:32:04;;;;;;;0.00;0.00;;;12.50;83.80;;;;;;4150757;28;20042;-68
2022/04/08 08:34:26;;;;;;;0.00;0.00;;;12.30;84.10;;;;;;4177909;28;20124;-71
2022/04/08 08:36:51;;;;;;;0.00;0.00;;;12.40;85.00;;;;;;4163878;28;20417;-71
2022/04/08 08:39:16;;;;;;;0.00;0.00;;;12.60;84.70;;;;;;4178171;28;20041;-69
2022/04/08 08:41:39;;;;;;;0.00;0.00;;;12.70;84.20;;;;;;4178083;28;20071;-71
2022/04/08 08:44:06;;;;;;;0.00;0.00;;;12.80;83.70;;;;;;4150272;28;20136;-68
2022/04/08 08:46:32;;;;;;;0.00;0.00;;;12.90;82.90;;;;;;4164357;28;20037;-69
2022/04/08 08:48:56;;;;;;;0.00;0.00;;;12.70;82.10;;;;;;4164414;28;20144;-70
2022/04/08 08:51:20;;;;;;;0.00;0.00;;;12.50;82.90;;;;;;4164003;28;20103;-68
2022/04/08 08:53:45;;;;;;;0.00;0.00;;;12.40;82.60;;;;;;4178075;28;20045;-70
2022/04/08 08:56:07;;;;;;;0.00;0.00;;;12.40;82.90;;;;;;4137042;28;20448;-70
2022/04/08 08:58:30;;;;;;;0.00;0.00;;;12.50;83.30;;;;;;4161579;28;20388;-69
2022/04/08 09:00:54;;;;;;;0.00;0.00;;;12.60;82.20;;;;;;4160869;28;20060;-70
2022/04/08 09:03:17;;;;;;;0.00;0.00;;;12.60;81.30;;;;;;4126094;28;20047;-69
2022/04/08 09:05:47;;;;;;;0.00;0.00;;;12.50;81.20;;;;;;4147475;28;20042;-70
2022/04/08 09:08:10;;;;;;;0.00;0.00;;;12.50;80.50;;;;;;4120584;28;20073;-69
2022/04/08 09:10:37;;;;;;;0.00;0.00;;;12.70;80.90;;;;;;4147646;28;20078;-73
2022/04/08 09:13:00;;;;;;;0.00;0.00;;;12.80;81.40;;;;;;4138936;28;20064;-70
2022/04/08 09:15:25;;;;;;;0.00;0.00;;;13.00;81.20;;;;;;4152907;28;20131;-70
2022/04/08 09:17:47;;;;;;;0.00;0.00;;;13.10;80.80;;;;;;4125963;28;20042;-71
2022/04/08 09:20:12;;;;;;;0.00;0.00;;;13.00;80.50;;;;;;4137673;28;20115;-70
2022/04/08 09:22:36;;;;;;;0.00;0.00;;;13.00;80.60;;;;;;4166821;28;20053;-70
2022/04/08 09:25:14;;;;;;;0.00;0.00;;;12.90;80.80;;;;;;4152408;28;20099;-69
2022/04/08 09:27:41;;;;;;;0.00;0.00;;;13.00;81.20;;;;;;4139144;28;20044;-69
2022/04/08 09:30:04;;;;;;;0.00;0.00;;;13.10;81.10;;;;;;4166767;28;20037;-70
2022/04/08 09:32:28;;;;;;;0.00;0.00;;;12.80;80.50;;;;;;4153030;28;20046;-71
2022/04/08 09:34:51;;;;;;;0.00;0.00;;;12.80;81.70;;;;;;4151778;28;20132;-71
2022/04/08 09:37:15;;;;;;;0.00;0.00;;;12.80;82.20;;;;;;4125575;28;20047;-71
2022/04/08 09:39:57;;;;;;;0.00;0.00;;;12.90;81.10;;;;;;4149353;28;20096;-70
2022/04/08 09:42:19;;;;;;;0.00;0.00;;;12.90;80.10;;;;;;4139040;28;20065;-69
2022/04/08 09:44:41;;;;;;;0.00;0.00;;;13.00;80.20;;;;;;4125205;28;20101;-71
2022/04/08 09:47:05;;;;;;;0.00;0.00;;;13.00;80.50;;;;;;4139035;28;20054;-69
2022/04/08 09:49:30;;;;;;;0.00;0.00;;;13.00;80.90;;;;;;4125202;28;20108;-71
2022/04/08 09:52:00;;;;;;;0.00;0.00;;;13.10;80.70;;;;;;4126119;28;20632;-71
2022/04/08 09:54:31;;;;;;;0.00;0.00;;;13.10;80.10;;;;;;4125472;28;20133;-70
2022/04/08 09:56:57;;;;;;;0.00;0.00;;;13.20;80.70;;;;;;4127385;28;20100;-69
2022/04/08 09:59:32;;;;;;;0.00;0.00;;;13.30;81.10;;;;;;4139079;28;20472;-70
2022/04/08 10:02:21;;;;;;;0.00;0.00;;;13.40;81.70;;;;;;4152656;28;20052;-69
2022/04/08 10:04:58;;;;;;;0.00;0.00;;;13.40;81.10;;;;;;4154218;28;20049;-68
2022/04/08 10:07:23;;;;;;;0.00;0.00;;;13.40;80.50;;;;;;4140499;28;20058;-69
2022/04/08 10:10:07;;;;;;;0.00;0.00;;;13.40;80.40;;;;;;4155152;28;20084;-69
2022/04/08 10:12:39;;;;;;;0.00;0.00;;;13.40;80.40;;;;;;4135266;28;20056;-70
2022/04/08 10:15:19;;;;;;;0.00;0.00;;;13.40;81.10;;;;;;4141102;28;20042;-68
2022/04/08 10:17:57;;;;;;;0.00;0.00;;;13.40;81.80;;;;;;4155004;28;20065;-73
2022/04/08 10:20:21;;;;;;;0.00;0.00;;;13.30;81.20;;;;;;4155348;28;20041;-68
2022/04/08 10:22:43;;;;;;;0.00;0.00;;;13.10;81.30;;;;;;4153328;28;20058;-71
2022/04/08 10:25:16;;;;;;;0.00;0.00;;;13.10;82.20;;;;;;4152660;28;20108;-71
2022/04/08 10:27:43;;;;;;;0.00;0.00;;;13.10;82.30;;;;;;4138802;28;20042;-71
2022/04/08 10:30:20;;;;;;;0.00;0.00;;;13.20;82.90;;;;;;4152530;28;20471;-73
2022/04/08 10:32:43;;;;;;;0.00;0.00;;;13.30;81.90;;;;;;4152096;28;20057;-71
2022/04/08 10:35:19;;;;;;;0.00;0.00;;;13.30;81.80;;;;;;4138660;28;20080;-70
2022/04/08 10:38:00;;;;;;;0.00;0.00;;;13.30;82.30;;;;;;4151609;28;20153;-70
2022/04/08 10:40:30;;;;;;;0.00;0.00;;;13.10;83.00;;;;;;4139077;28;20041;-72
2022/04/08 10:43:07;;;;;;;0.00;0.00;;;13.10;84.20;;;;;;4152046;28;20045;-72
2022/04/08 10:45:31;;;;;;;0.00;0.00;;;13.40;83.70;;;;;;4152286;28;20474;-72
2022/04/08 10:47:54;;;;;;;0.00;0.00;;;13.70;83.40;;;;;;4152441;28;20498;-72
2022/04/08 10:50:33;;;;;;;0.00;0.00;;;13.90;82.60;;;;;;4138885;28;20047;-71
2022/04/08 10:53:03;;;;;;;0.00;0.00;;;14.10;81.60;;;;;;4138761;28;20047;-71
2022/04/08 10:55:27;;;;;;;0.00;0.00;;;13.90;80.70;;;;;;4152183;28;20123;-73
2022/04/08 10:58:00;;;;;;;0.00;0.00;;;14.00;81.00;;;;;;4138911;28;20085;-74
2022/04/08 11:00:22;;;;;;;0.00;0.00;;;14.10;81.50;;;;;;4152115;28;20089;-70
2022/04/08 11:02:46;;;;;;;0.00;0.00;;;14.20;81.90;;;;;;4138367;28;20163;-71
2022/04/08 11:05:14;;;;;;;0.00;0.00;;;14.40;81.70;;;;;;4151879;28;20119;-73
2022/04/08 11:07:44;;;;;;;0.00;0.00;;;14.70;81.00;;;;;;4152547;28;20054;-71
2022/04/08 11:10:12;;;;;;;0.00;0.00;;;14.90;80.50;;;;;;4138506;28;20050;-73
2022/04/08 11:12:51;;;;;;;0.00;0.00;;;15.10;79.60;;;;;;4138065;28;20058;-69
2022/04/08 11:15:15;;;;;;;0.00;0.00;;;15.30;80.50;;;;;;4151235;28;20045;-70
2022/04/08 11:17:42;;;;;;;0.00;0.00;;;15.40;80.20;;;;;;4151929;28;20053;-70
2022/04/08 11:20:10;;;;;;;0.00;0.00;;;15.40;80.00;;;;;;4138066;28;20050;-72
2022/04/08 11:22:45;;;;;;;0.00;0.00;;;15.30;80.00;;;;;;4151725;28;20049;-71
2022/04/08 11:25:20;;;;;;;0.00;0.00;;;15.20;79.90;;;;;;4151005;28;20042;-72
2022/04/08 11:27:44;;;;;;;0.00;0.00;;;15.00;80.50;;;;;;4138105;28;20476;-70
2022/04/08 11:30:09;;;;;;;0.00;0.00;;;15.00;80.50;;;;;;4138041;28;20568;-70
2022/04/08 11:32:32;;;;;;;0.00;0.00;;;15.20;79.50;;;;;;4138103;28;20104;-69
2022/04/08 11:34:56;;;;;;;0.00;0.00;;;15.10;79.90;;;;;;4137160;28;20053;-71
2022/04/08 11:37:26;;;;;;;0.00;0.00;;;15.00;79.00;;;;;;4137554;28;20043;-71
2022/04/08 11:39:59;;;;;;;0.00;0.00;;;15.20;77.80;;;;;;4151542;28;20046;-72
2022/04/08 11:42:21;;;;;;;0.00;0.00;;;15.40;76.60;;;;;;4137515;28;20364;-70
2022/04/08 11:44:44;;;;;;;0.00;0.00;;;15.50;75.50;;;;;;4137766;28;20057;-73
2022/04/08 11:47:08;;;;;;;0.00;0.00;;;15.50;75.40;;;;;;4124705;28;20077;-73
2022/04/08 11:49:35;;;;;;;0.00;0.00;;;15.60;75.30;;;;;;4138015;28;20444;-73
2022/04/08 11:52:05;;;;;;;0.00;0.00;;;15.70;74.80;;;;;;4151115;28;20042;-70
2022/04/08 11:54:27;;;;;;;0.00;0.00;;;15.80;74.70;;;;;;4137260;28;20054;-72
2022/04/08 11:56:49;;;;;;;0.00;0.00;;;15.70;73.80;;;;;;4136774;28;20065;-73
2022/04/08 11:59:19;;;;;;;0.00;0.00;;;15.80;73.50;;;;;;4137626;28;20501;-72
2022/04/08 12:01:41;;;;;;;0.00;0.00;;;15.90;72.10;;;;;;4137340;28;20061;-70
2022/04/08 12:04:15;;;;;;;0.00;0.00;;;15.90;70.30;;;;;;4137581;28;20485;-71
2022/04/08 12:06:44;;;;;;;0.00;0.00;;;16.00;68.20;;;;;;4150618;28;20049;-71
2022/04/08 12:09:09;;;;;;;0.00;0.00;;;16.10;67.10;;;;;;4150974;28;20108;-70
2022/04/08 12:11:34;;;;;;;0.00;0.00;;;16.10;66.40;;;;;;4137193;28;20401;-70
2022/04/08 12:13:59;;;;;;;0.00;0.00;;;16.20;66.50;;;;;;4150682;28;20084;-71
2022/04/08 12:16:21;;;;;;;0.00;0.00;;;16.20;65.90;;;;;;4136903;28;20042;-71
2022/04/08 12:18:51;;;;;;;0.00;0.00;;;16.30;66.50;;;;;;4136965;28;20057;-72
2022/04/08 12:21:14;;;;;;;0.00;0.00;;;16.40;65.50;;;;;;4151122;28;20044;-72
2022/04/08 12:23:42;;;;;;;0.00;0.00;;;16.30;65.90;;;;;;4150729;28;20038;-73
2022/04/08 12:26:08;;;;;;;0.00;0.00;;;16.40;66.30;;;;;;4137082;28;20054;-71
2022/04/08 12:28:35;;;;;;;0.00;0.00;;;16.40;66.20;;;;;;4150737;28;20050;-71
2022/04/08 12:30:57;;;;;;;0.00;0.00;;;16.40;66.50;;;;;;4136567;28;20078;-71
2022/04/08 12:33:23;;;;;;;0.00;0.00;;;16.30;66.10;;;;;;4136986;28;20064;-71
2022/04/08 12:35:48;;;;;;;0.00;0.00;;;16.30;66.40;;;;;;4137013;28;20061;-71
2022/04/08 12:38:19;;;;;;;0.00;0.00;;;16.20;66.20;;;;;;4137046;28;20054;-72
2022/04/08 12:40:45;;;;;;;0.00;0.00;;;16.20;65.40;;;;;;4136403;28;20056;-70